Time;durP1;ratioP1;P1;durP2;ratioP2;P2;SDS_P1;SDS_P2;PMS_P1;PMS_P2;Temp;Humidity;BMP_temperature;BMP_pressure;BME280_temperature;BME280_humidity;BME280_pressure;Samples;Min_cycle;Max_cycle;Signal;HPM_P1;HPM_P2
2022/11/06 00:00:32;;;;;;;8.35;4.32;;;;;;;9.67;45.56;101262.03;4931086;29;20039;-81
2022/11/06 00:03:01;;;;;;;7.20;4.30;;;;;;;9.67;45.65;101259.31;4930209;29;20103;-81
2022/11/06 00:08:36;;;;;;;6.80;5.00;;;;;;;9.63;46.10;101259.66;4933920;28;20426;-81
2022/11/06 00:11:11;;;;;;;8.85;4.85;;;;;;;9.61;45.75;101257.06;4948733;29;20123;-81
2022/11/06 00:13:39;;;;;;;7.13;4.50;;;;;;;9.56;45.58;101251.09;4932731;29;20111;-81
2022/11/06 00:16:09;;;;;;;7.03;4.57;;;;;;;9.55;45.69;101264.84;4940153;29;20039;-82
2022/11/06 00:18:38;;;;;;;7.95;4.63;;;;;;;9.54;45.88;101260.38;4936652;29;20074;-80
2022/11/06 00:21:07;;;;;;;8.10;4.80;;;;;;;9.50;45.59;101267.94;4941617;29;20048;-80
2022/11/06 00:23:35;;;;;;;6.35;4.72;;;;;;;9.51;46.10;101252.41;4941303;29;20106;-80
2022/11/06 00:26:06;;;;;;;8.38;5.00;;;;;;;9.50;45.80;101262.47;4937912;29;20164;-81
2022/11/06 00:28:35;;;;;;;7.20;4.72;;;;;;;9.49;45.57;101265.34;4936212;29;20048;-81
2022/11/06 00:31:04;;;;;;;6.20;4.40;;;;;;;9.45;46.00;101271.03;4945088;29;20063;-82
2022/11/06 00:33:32;;;;;;;6.95;4.25;;;;;;;9.44;46.01;101257.47;4933626;29;20099;-81
2022/11/06 00:36:03;;;;;;;8.70;4.88;;;;;;;9.43;45.92;101264.78;4935966;29;20035;-82
2022/11/06 00:38:31;;;;;;;7.50;4.70;;;;;;;9.41;45.96;101255.84;4954026;28;20182;-82
2022/11/06 00:41:02;;;;;;;7.40;4.80;;;;;;;9.42;45.90;101257.59;4937203;29;20060;-81
2022/11/06 00:43:31;;;;;;;7.68;4.72;;;;;;;9.38;45.84;101250.63;4940034;29;20039;-81
2022/11/06 00:46:03;;;;;;;7.63;4.80;;;;;;;9.39;46.32;101248.78;4936655;29;20047;-81
2022/11/06 00:48:31;;;;;;;6.63;4.50;;;;;;;9.36;46.03;101240.75;4940407;29;20044;-81
2022/11/06 00:51:02;;;;;;;6.45;4.20;;;;;;;9.37;46.04;101253.44;4941149;29;20048;-81
2022/11/06 00:53:30;;;;;;;6.28;4.15;;;;;;;9.32;46.00;101255.66;4940267;29;20055;-81
2022/11/06 00:56:04;;;;;;;6.63;4.75;;;;;;;9.33;46.35;101252.78;4938414;28;20055;-80
2022/11/06 00:58:32;;;;;;;8.13;4.68;;;;;;;9.29;46.12;101242.22;4933398;29;20085;-80
2022/11/06 01:01:08;;;;;;;7.53;4.72;;;;;;;9.29;46.34;101242.22;4931474;29;20040;-80
2022/11/06 01:03:36;;;;;;;7.30;3.97;;;;;;;9.25;46.11;101235.25;4936177;29;20265;-79
2022/11/06 01:06:06;;;;;;;7.05;4.65;;;;;;;9.25;46.13;101233.38;4946391;23;20098;-79
2022/11/06 01:08:34;;;;;;;6.07;3.80;;;;;;;9.23;46.24;101237.25;4932597;29;20045;-79
2022/11/06 01:11:07;;;;;;;7.30;4.45;;;;;;;9.23;45.99;101234.50;4934150;29;20055;-79
2022/11/06 01:13:35;;;;;;;6.00;4.28;;;;;;;9.19;46.08;101238.44;4938903;29;20044;-79
2022/11/06 01:16:08;;;;;;;7.20;4.00;;;;;;;9.19;46.27;101232.97;4925482;29;20043;-79
2022/11/06 01:18:38;;;;;;;5.95;3.92;;;;;;;9.15;45.95;101232.38;4927650;29;20036;-79
2022/11/06 01:21:08;;;;;;;6.47;4.13;;;;;;;9.15;46.06;101234.22;4932638;29;20035;-79
2022/11/06 01:23:36;;;;;;;5.65;3.65;;;;;;;9.13;46.02;101228.00;4946730;29;20067;-79
2022/11/06 01:26:07;;;;;;;7.53;4.20;;;;;;;9.12;46.20;101228.97;4933112;29;20055;-79
2022/11/06 01:28:35;;;;;;;6.43;3.70;;;;;;;9.09;46.00;101239.13;4944770;29;20503;-80
2022/11/06 01:31:04;;;;;;;6.05;3.70;;;;;;;9.08;46.37;101240.13;4932848;29;20491;-79
2022/11/06 01:33:33;;;;;;;6.68;3.58;;;;;;;9.07;46.44;101227.47;4925608;29;20074;-79
2022/11/06 01:36:01;;;;;;;7.38;3.55;;;;;;;9.05;46.50;101228.56;4944851;29;20052;-79
2022/11/06 01:38:29;;;;;;;5.30;3.70;;;;;;;9.04;46.32;101229.56;4929956;29;20058;-79
2022/11/06 01:40:57;;;;;;;5.47;3.30;;;;;;;9.02;46.13;101229.66;4927631;29;20052;-79
2022/11/06 01:43:46;;;;;;;6.40;3.22;;;;;;;9.02;46.17;101218.75;4917214;29;20361;-79
2022/11/06 01:46:14;;;;;;;5.90;3.15;;;;;;;8.99;45.94;101213.53;4923982;29;20055;-79
2022/11/06 01:48:49;;;;;;;4.80;2.90;;;;;;;9.03;46.53;101214.16;4921724;29;20105;-79
2022/11/06 01:51:17;;;;;;;5.05;3.22;;;;;;;8.98;46.22;101206.34;4932561;29;20103;-79
2022/11/06 01:53:45;;;;;;;4.80;2.88;;;;;;;8.98;46.43;101211.78;4943744;29;20075;-79
2022/11/06 01:56:15;;;;;;;6.75;3.03;;;;;;;8.98;46.36;101195.41;4940121;29;20577;-79
2022/11/06 01:58:46;;;;;;;6.85;3.95;;;;;;;8.98;46.14;101200.00;4932683;29;20098;-79
2022/11/06 02:01:14;;;;;;;5.13;3.40;;;;;;;8.95;46.44;101203.81;4931235;29;20080;-80
2022/11/06 02:03:51;;;;;;;5.50;3.10;;;;;;;8.96;46.57;101200.09;4928044;29;20396;-79
2022/11/06 02:06:19;;;;;;;4.10;2.65;;;;;;;8.91;46.21;101196.00;4919745;29;20044;-79
2022/11/06 02:08:48;;;;;;;5.75;2.55;;;;;;;8.92;46.28;101204.03;4927639;29;20467;-80
2022/11/06 02:11:16;;;;;;;6.20;3.08;;;;;;;8.92;46.26;101192.25;4943837;29;20044;-80
2022/11/06 02:13:57;;;;;;;5.70;2.88;;;;;;;8.93;46.73;101185.81;4932386;29;20047;-80
2022/11/06 02:16:34;;;;;;;6.38;2.78;;;;;;;8.94;46.62;101187.56;4932613;29;20047;-79
2022/11/06 02:19:27;;;;;;;4.88;2.67;;;;;;;8.95;47.12;101195.63;4925606;29;20087;-79
2022/11/06 02:22:10;;;;;;;4.15;2.50;;;;;;;8.93;46.57;101197.59;4931133;29;20094;-79
2022/11/06 02:24:59;;;;;;;6.30;2.70;;;;;;;8.92;47.11;101193.13;4928681;29;20417;-79
2022/11/06 02:27:30;;;;;;;4.70;2.50;;;;;;;8.92;46.65;101184.94;4930263;29;20244;-80
2022/11/06 02:30:02;;;;;;;6.18;3.00;;;;;;;8.94;46.94;101191.16;4934167;29;20078;-79
2022/11/06 02:32:35;;;;;;;4.93;2.40;;;;;;;8.93;46.62;101194.88;4941841;29;20050;-79
2022/11/06 02:35:14;;;;;;;6.18;2.50;;;;;;;8.97;46.72;101190.06;4928696;29;20043;-79
2022/11/06 02:37:44;;;;;;;4.88;2.42;;;;;;;8.95;47.01;101201.09;4922834;29;20335;-79
2022/11/06 02:40:14;;;;;;;4.55;2.40;;;;;;;8.96;46.26;101191.91;4926490;29;20036;-79
2022/11/06 02:42:46;;;;;;;6.13;2.55;;;;;;;8.97;47.03;101179.16;4931623;29;20052;-79
2022/11/06 02:45:18;;;;;;;5.28;2.67;;;;;;;8.96;46.56;101185.59;4926744;29;20055;-79
2022/11/06 02:47:49;;;;;;;5.90;2.85;;;;;;;8.99;46.82;101179.91;4937261;29;20134;-79
2022/11/06 02:50:22;;;;;;;6.22;2.70;;;;;;;8.98;47.03;101183.63;4927650;29;20236;-79
2022/11/06 02:52:54;;;;;;;6.72;3.17;;;;;;;8.97;46.84;101169.09;4939983;29;20514;-79
2022/11/06 02:55:28;;;;;;;6.60;2.45;;;;;;;8.98;46.81;101161.78;4928298;29;20052;-79
2022/11/06 02:57:59;;;;;;;;;;;;;;;8.71;47.35;101165.59;4930737;29;20048;-79
2022/11/06 03:00:28;;;;;;;5.68;2.63;;;;;;;8.93;46.52;101158.50;4946773;29;19937;-79
2022/11/06 03:03:09;;;;;;;5.18;2.40;;;;;;;8.98;46.87;101164.50;4922839;29;20047;-80
2022/11/06 03:06:32;;;;;;;4.22;2.20;;;;;;;8.91;46.90;101166.84;4920472;29;20458;-79
2022/11/06 03:09:04;;;;;;;5.00;2.55;;;;;;;8.92;46.82;101157.63;4928615;29;20043;-79
2022/11/06 03:11:37;;;;;;;5.43;2.30;;;;;;;8.89;46.41;101146.09;4920061;29;20044;-81
2022/11/06 03:14:11;;;;;;;;;;;;;;;8.66;47.25;101148.72;4924600;29;20104;-79
2022/11/06 03:16:50;;;;;;;5.18;2.40;;;;;;;8.85;46.56;101145.44;4922964;29;20494;-79
2022/11/06 03:19:26;;;;;;;4.63;2.08;;;;;;;8.90;46.97;101142.38;4926351;29;20079;-80
2022/11/06 03:22:02;;;;;;;4.50;2.40;;;;;;;8.89;46.51;101140.63;4926283;29;20079;-79
2022/11/06 03:24:34;;;;;;;4.32;2.50;;;;;;;8.87;46.58;101129.84;4939842;29;20122;-80
2022/11/06 03:27:08;;;;;;;5.07;2.60;;;;;;;8.85;46.76;101125.47;4923470;29;20058;-80
2022/11/06 03:29:42;;;;;;;5.20;2.22;;;;;;;8.85;46.69;101134.53;4921729;29;20356;-80
2022/11/06 03:32:18;;;;;;;5.10;2.40;;;;;;;8.85;46.72;101150.91;4931588;29;20048;-80
2022/11/06 03:34:51;;;;;;;6.68;2.70;;;;;;;8.82;46.57;101139.38;4921545;29;20126;-79
2022/11/06 03:37:30;;;;;;;4.45;2.40;;;;;;;8.83;47.05;101152.03;4929122;29;20062;-79
2022/11/06 03:40:03;;;;;;;4.70;2.40;;;;;;;8.80;46.53;101155.84;4932442;29;20526;-79
2022/11/06 03:42:31;;;;;;;4.45;2.22;;;;;;;8.77;46.91;101153.34;4958286;28;20079;-79
2022/11/06 03:45:05;;;;;;;3.42;2.13;;;;;;;8.81;46.99;101156.72;4932333;29;20085;-79
2022/11/06 03:47:38;;;;;;;4.85;2.42;;;;;;;8.81;46.88;101162.19;4921230;29;20058;-80
2022/11/06 03:50:11;;;;;;;;;;;;;;;8.55;47.37;101169.59;4918982;29;20108;-80
2022/11/06 03:52:44;;;;;;;3.88;2.15;;;;;;;8.75;46.93;101157.19;4943224;29;20217;-81
2022/11/06 03:55:16;;;;;;;4.60;2.40;;;;;;;8.78;46.86;101165.13;4943731;29;20048;-79
2022/11/06 03:57:49;;;;;;;4.90;2.33;;;;;;;8.79;46.96;101164.16;4931059;29;20036;-80
2022/11/06 04:00:19;;;;;;;3.90;2.28;;;;;;;8.79;46.84;101161.44;4922837;29;20103;-80
2022/11/06 04:02:52;;;;;;;4.40;2.60;;;;;;;8.81;46.80;101168.53;4937896;29;20056;-80
2022/11/06 04:05:22;;;;;;;4.75;2.40;;;;;;;8.79;46.79;101156.84;4941504;28;20107;-80
2022/11/06 04:16:21;;;;;;;6.13;2.35;;;;;;;8.78;46.80;101149.63;4942572;29;20051;-80
2022/11/06 04:18:48;;;;;;;4.05;2.20;;;;;;;8.76;46.97;101146.13;4939893;29;20127;-80
2022/11/06 04:21:25;;;;;;;5.95;2.53;;;;;;;8.78;46.81;101137.84;4925424;29;20467;-80
2022/11/06 04:27:14;;;;;;;5.25;2.20;;;;;;;8.74;47.27;101137.22;4945576;28;20043;-80
2022/11/06 04:29:54;;;;;;;5.55;2.47;;;;;;;8.76;47.06;101128.91;4937039;29;20080;-80
2022/11/06 04:32:33;;;;;;;6.22;2.60;;;;;;;8.76;47.29;101128.91;4924792;29;20055;-80
2022/11/06 04:35:09;;;;;;;4.30;2.42;;;;;;;8.74;47.27;101129.03;4939137;29;20044;-79
2022/11/06 04:37:47;;;;;;;4.22;2.05;;;;;;;8.74;47.04;101129.03;4935291;29;20044;-79
2022/11/06 04:40:23;;;;;;;4.13;1.85;;;;;;;8.72;47.15;101128.28;4937994;29;20526;-79
2022/11/06 04:42:56;;;;;;;5.22;2.42;;;;;;;8.70;47.17;101125.66;4936586;29;20070;-79
2022/11/06 04:45:27;;;;;;;5.10;2.30;;;;;;;8.69;46.72;101123.91;4940619;29;21015;-79
2022/11/06 04:47:57;;;;;;;5.35;2.25;;;;;;;8.69;46.72;101121.19;4941411;28;20066;-80
2022/11/06 04:50:27;;;;;;;4.55;2.10;;;;;;;8.66;46.64;101109.66;4932664;29;20561;-79
2022/11/06 04:52:56;;;;;;;3.72;2.20;;;;;;;8.64;47.09;101097.97;4930658;29;20110;-79
2022/11/06 04:55:24;;;;;;;5.65;2.30;;;;;;;8.62;46.78;101089.91;4935604;29;20124;-79
2022/11/06 04:57:51;;;;;;;3.90;1.90;;;;;;;8.61;46.66;101088.16;4936457;29;20048;-80
2022/11/06 05:00:19;;;;;;;5.43;2.30;;;;;;;8.61;47.23;101079.09;4935525;29;20076;-80
2022/11/06 05:02:47;;;;;;;4.05;2.30;;;;;;;8.59;47.02;101079.22;4935658;29;20554;-80
2022/11/06 05:05:16;;;;;;;4.20;2.25;;;;;;;8.60;46.94;101060.97;4929474;29;20052;-79
2022/11/06 05:07:44;;;;;;;5.35;2.08;;;;;;;8.56;47.14;101063.09;4942961;28;20578;-79
2022/11/06 05:10:12;;;;;;;4.18;2.00;;;;;;;8.56;47.07;101057.63;4955556;29;20040;-80
2022/11/06 05:12:40;;;;;;;4.70;2.50;;;;;;;8.56;46.82;101062.22;4939918;29;20051;-80
2022/11/06 05:15:08;;;;;;;3.78;1.98;;;;;;;8.56;47.15;101068.53;4932725;29;20044;-80
2022/11/06 05:17:36;;;;;;;5.07;2.03;;;;;;;8.55;47.01;101057.75;4931653;29;20052;-81
2022/11/06 05:20:05;;;;;;;3.40;1.60;;;;;;;8.56;46.93;101054.03;4928401;29;20080;-81
2022/11/06 05:25:19;;;;;;;4.72;1.90;;;;;;;8.52;47.22;101039.75;4930896;29;20043;-80
2022/11/06 05:27:47;;;;;;;5.07;1.98;;;;;;;8.53;47.23;101029.69;4934016;29;20512;-80
2022/11/06 05:30:15;;;;;;;4.05;1.85;;;;;;;8.53;47.30;101038.75;4934098;29;20044;-80
2022/11/06 05:32:43;;;;;;;4.63;2.08;;;;;;;8.54;46.98;101036.91;4933389;29;20107;-79
2022/11/06 05:35:10;;;;;;;3.28;1.65;;;;;;;8.54;47.26;101031.44;4937855;29;20421;-80
2022/11/06 05:37:39;;;;;;;3.78;1.70;;;;;;;8.56;47.18;101032.22;4936738;29;20043;-79
2022/11/06 05:40:08;;;;;;;3.20;1.80;;;;;;;8.55;47.09;101028.59;4929276;29;20051;-79
2022/11/06 05:42:37;;;;;;;4.53;1.98;;;;;;;8.55;47.48;101022.28;4930124;29;20043;-79
2022/11/06 05:45:06;;;;;;;3.42;2.03;;;;;;;8.55;47.01;101030.47;4916562;29;20086;-79
2022/11/06 05:47:35;;;;;;;3.10;1.80;;;;;;;8.54;47.00;101036.91;4947805;28;20087;-79
2022/11/06 05:50:03;;;;;;;3.03;1.50;;;;;;;8.53;47.26;101030.56;4923478;29;20052;-79
2022/11/06 05:52:31;;;;;;;4.60;1.80;;;;;;;8.52;47.37;101017.91;4927319;29;20039;-79
2022/11/06 05:55:00;;;;;;;3.67;1.65;;;;;;;8.54;47.30;101015.94;4926958;29;20040;-79
2022/11/06 05:57:27;;;;;;;3.28;1.50;;;;;;;8.53;47.17;101007.88;4931192;29;20099;-79
2022/11/06 05:59:55;;;;;;;3.50;1.85;;;;;;;8.52;47.28;101004.28;4928023;29;20126;-79
2022/11/06 06:02:23;;;;;;;4.78;1.90;;;;;;;8.52;47.07;101009.75;4928886;29;20047;-79
2022/11/06 06:04:51;;;;;;;4.57;1.92;;;;;;;8.52;47.24;101011.59;4925965;29;20051;-79
2022/11/06 06:07:19;;;;;;;4.70;1.90;;;;;;;8.52;47.38;101014.31;4923400;29;20119;-79
2022/11/06 06:09:47;;;;;;;5.00;2.10;;;;;;;8.51;47.15;101013.44;4932018;29;20432;-79
2022/11/06 06:12:16;;;;;;;4.00;1.90;;;;;;;8.51;47.08;101002.53;4932993;29;20475;-79
2022/11/06 06:14:44;;;;;;;3.38;1.88;;;;;;;8.49;47.47;100993.63;4923610;29;20057;-79
2022/11/06 06:17:17;;;;;;;4.78;1.90;;;;;;;8.49;47.30;100990.03;4943814;29;20086;-79
2022/11/06 06:19:45;;;;;;;4.38;1.92;;;;;;;8.48;47.25;100983.69;4920579;29;20562;-79
2022/11/06 06:22:13;;;;;;;4.53;2.00;;;;;;;8.48;47.36;100991.88;4925721;29;20059;-79
2022/11/06 06:24:41;;;;;;;4.65;2.00;;;;;;;8.46;47.21;100982.94;4922613;29;20045;-79
2022/11/06 06:27:09;;;;;;;5.70;2.08;;;;;;;8.46;47.16;100987.53;4931109;29;20079;-79
2022/11/06 06:29:38;;;;;;;3.80;1.90;;;;;;;8.46;47.32;100974.75;4944449;29;20095;-80
2022/11/06 06:32:06;;;;;;;5.13;1.90;;;;;;;8.45;47.19;100978.47;4926910;29;20080;-80
2022/11/06 06:34:34;;;;;;;3.85;1.80;;;;;;;8.43;47.50;100977.72;4924994;29;20032;-80
2022/11/06 06:37:02;;;;;;;4.15;2.13;;;;;;;8.44;47.59;100981.31;4927285;29;20060;-79
2022/11/06 06:39:30;;;;;;;4.10;1.75;;;;;;;8.43;47.40;100976.84;4922104;29;20071;-79
2022/11/06 06:41:58;;;;;;;4.82;1.80;;;;;;;8.43;47.44;100985.88;4934030;29;20051;-79
2022/11/06 06:44:26;;;;;;;5.40;1.73;;;;;;;8.44;47.39;100994.94;4934539;29;20065;-80
2022/11/06 06:46:55;;;;;;;3.50;1.85;;;;;;;8.45;47.61;100994.84;4932439;29;20199;-79
2022/11/06 06:49:23;;;;;;;4.45;1.90;;;;;;;8.45;47.87;100996.69;4943537;28;20099;-79
2022/11/06 06:51:51;;;;;;;4.20;1.90;;;;;;;8.44;47.66;100998.53;4926272;29;20051;-79
2022/11/06 06:54:19;;;;;;;4.25;1.98;;;;;;;8.47;47.84;101009.22;4920217;29;20491;-80
2022/11/06 06:56:50;;;;;;;3.63;1.85;;;;;;;8.48;47.69;101010.97;4930792;29;20054;-79
2022/11/06 06:59:18;;;;;;;3.85;2.00;;;;;;;8.49;47.42;101011.84;4924251;29;20051;-79
2022/11/06 07:01:47;;;;;;;4.47;2.17;;;;;;;8.50;47.60;101008.13;4929733;29;20073;-80
2022/11/06 07:04:16;;;;;;;4.53;1.98;;;;;;;8.53;47.83;101007.88;4932685;29;20074;-80
2022/11/06 07:06:44;;;;;;;10.23;2.00;;;;;;;8.52;47.95;101000.69;4938968;23;20032;-72
2022/11/06 07:09:12;;;;;;;5.45;2.00;;;;;;;8.54;47.89;101013.22;4932266;29;20063;-72
2022/11/06 07:11:39;;;;;;;3.95;1.90;;;;;;;8.54;47.48;101009.63;4946401;29;20588;-72
2022/11/06 07:14:07;;;;;;;4.65;1.92;;;;;;;8.55;47.74;101014.09;4934038;29;20051;-72
2022/11/06 07:16:35;;;;;;;6.30;2.03;;;;;;;8.57;47.63;101010.28;4930376;29;20054;-71
2022/11/06 07:19:06;;;;;;;4.25;1.70;;;;;;;8.59;48.08;101011.00;4942305;29;20047;-71
2022/11/06 07:21:35;;;;;;;5.60;1.90;;;;;;;8.60;48.02;101010.00;4942963;28;20464;-72
2022/11/06 07:24:04;;;;;;;4.50;2.13;;;;;;;8.60;48.05;101011.88;4943671;29;20043;-73
2022/11/06 07:26:31;;;;;;;4.32;1.75;;;;;;;8.60;47.50;101012.75;4938794;29;20048;-72
2022/11/06 07:28:59;;;;;;;3.95;1.88;;;;;;;8.60;47.75;101009.16;4944967;29;20499;-72
2022/11/06 07:31:27;;;;;;;4.68;1.92;;;;;;;8.62;47.76;101018.97;4936773;28;20058;-72
2022/11/06 07:33:55;;;;;;;5.25;2.10;;;;;;;8.61;47.80;101014.50;4943889;28;20095;-72
2022/11/06 07:36:23;;;;;;;3.53;1.95;;;;;;;8.62;47.68;101016.22;4939870;29;20054;-72
2022/11/06 07:38:52;;;;;;;3.30;1.70;;;;;;;8.64;47.77;101007.94;4942896;29;20332;-72
2022/11/06 07:41:20;;;;;;;5.18;2.13;;;;;;;8.64;47.72;101013.41;4941939;28;20055;-73
2022/11/06 07:43:49;;;;;;;4.43;1.90;;;;;;;8.65;47.86;101005.09;4947666;28;20471;-72
2022/11/06 07:46:17;;;;;;;3.50;1.67;;;;;;;8.65;48.06;101012.41;4935793;29;20040;-73
2022/11/06 07:48:45;;;;;;;4.90;2.33;;;;;;;8.67;47.86;101014.00;4932501;29;20071;-72
2022/11/06 07:51:13;;;;;;;3.85;1.92;;;;;;;8.68;47.73;101006.69;4930168;29;20052;-72
2022/11/06 07:53:41;;;;;;;3.58;1.90;;;;;;;8.69;47.99;101009.31;4938728;29;20050;-72
2022/11/06 07:56:10;;;;;;;3.85;1.95;;;;;;;8.72;48.09;101008.22;4936199;28;20073;-72
2022/11/06 07:58:38;;;;;;;3.60;1.75;;;;;;;8.73;47.87;101003.63;4946433;28;20112;-73
2022/11/06 08:01:06;;;;;;;5.00;2.08;;;;;;;8.75;48.22;100999.81;4942483;28;20095;-73
2022/11/06 08:03:34;;;;;;;4.72;1.90;;;;;;;8.76;48.13;101006.97;4943946;29;20040;-73
2022/11/06 08:06:04;;;;;;;3.75;1.60;;;;;;;8.79;47.91;101003.16;4941626;28;20082;-72
2022/11/06 08:08:32;;;;;;;5.07;2.00;;;;;;;8.80;48.31;100983.06;4940562;29;20047;-72
2022/11/06 08:11:02;;;;;;;3.55;1.83;;;;;;;8.83;48.45;100989.16;4936106;29;20044;-72
2022/11/06 08:13:32;;;;;;;4.60;1.90;;;;;;;8.86;48.27;100985.28;4936789;29;20043;-73
2022/11/06 08:16:03;;;;;;;3.53;2.13;;;;;;;8.87;48.36;100987.03;4947068;29;20051;-72
2022/11/06 08:18:31;;;;;;;3.78;2.00;;;;;;;8.88;48.26;100983.31;4945115;28;20074;-72
2022/11/06 08:20:59;;;;;;;5.97;2.25;;;;;;;8.89;47.85;100983.22;4942326;29;20177;-72
2022/11/06 08:23:28;;;;;;;3.63;2.05;;;;;;;8.92;48.49;100982.06;4945032;28;20048;-72
2022/11/06 08:25:56;;;;;;;3.97;1.90;;;;;;;8.96;48.23;100986.31;4945606;29;20059;-73
2022/11/06 08:28:25;;;;;;;5.38;2.00;;;;;;;8.98;48.56;100984.34;4951864;28;20043;-74
2022/11/06 08:30:55;;;;;;;4.68;2.00;;;;;;;9.02;48.27;100983.97;4942173;29;20526;-72
2022/11/06 08:33:24;;;;;;;3.83;1.88;;;;;;;9.06;48.86;100977.28;4938755;29;20530;-72
2022/11/06 08:35:52;;;;;;;4.25;2.10;;;;;;;9.09;48.53;100978.88;4942780;29;20073;-72
2022/11/06 08:38:20;;;;;;;3.80;2.30;;;;;;;9.15;48.49;100967.50;4946543;28;20703;-72
2022/11/06 08:40:47;;;;;;;4.68;1.60;;;;;;;9.23;48.95;100958.69;4933575;29;20055;-71
2022/11/06 08:43:23;;;;;;;5.05;1.88;;;;;;;9.29;48.66;100958.19;4955829;28;20073;-72
2022/11/06 08:45:51;;;;;;;4.82;2.00;;;;;;;9.35;48.76;100963.13;4947566;29;20047;-71
2022/11/06 08:48:20;;;;;;;6.03;2.13;;;;;;;9.43;48.42;100958.84;4946019;28;20036;-71
2022/11/06 08:50:48;;;;;;;5.28;1.92;;;;;;;9.47;48.50;100956.72;4940127;29;20099;-71
2022/11/06 08:53:16;;;;;;;5.97;2.00;;;;;;;9.52;48.51;100950.88;4937687;28;20520;-72
2022/11/06 08:55:45;;;;;;;4.55;1.98;;;;;;;9.57;48.26;100943.19;4934109;29;20559;-71
2022/11/06 08:58:13;;;;;;;5.82;2.10;;;;;;;9.60;48.34;100942.91;4935299;28;20048;-72
2022/11/06 09:00:41;;;;;;;4.15;1.90;;;;;;;9.65;48.33;100952.50;4936839;29;20444;-72
2022/11/06 09:03:11;;;;;;;4.03;1.67;;;;;;;9.70;48.38;100949.38;4933230;29;20048;-71
2022/11/06 09:05:42;;;;;;;4.15;1.70;;;;;;;9.74;48.47;100942.69;4935403;29;20130;-70
2022/11/06 09:08:11;;;;;;;5.03;2.00;;;;;;;9.78;48.26;100936.81;4943586;28;20574;-72
2022/11/06 09:10:40;;;;;;;3.80;1.60;;;;;;;9.85;48.77;100948.09;4940645;29;20039;-72
2022/11/06 09:13:08;;;;;;;5.82;1.90;;;;;;;9.91;48.64;100936.66;4948652;28;20051;-72
2022/11/06 09:15:36;;;;;;;5.35;1.98;;;;;;;10.01;48.52;100926.69;4933058;29;20054;-71
2022/11/06 09:18:05;;;;;;;4.38;1.67;;;;;;;10.08;48.83;100929.75;4956381;28;20107;-72
2022/11/06 09:20:32;;;;;;;3.72;1.83;;;;;;;10.14;48.58;100916.47;4942204;28;20523;-71
2022/11/06 09:23:04;;;;;;;4.40;1.70;;;;;;;10.23;47.97;100904.69;4950057;28;20039;-72
2022/11/06 09:25:32;;;;;;;4.78;1.83;;;;;;;10.28;48.13;100908.94;4949995;29;20066;-71
2022/11/06 09:28:00;;;;;;;5.22;2.00;;;;;;;10.32;47.68;100903.06;4939093;29;20393;-72
2022/11/06 09:30:29;;;;;;;5.60;1.80;;;;;;;10.38;47.43;100896.22;4946155;29;20147;-72
2022/11/06 09:32:59;;;;;;;4.20;2.00;;;;;;;10.42;47.46;100886.72;4946993;29;20066;-71
2022/11/06 09:35:28;;;;;;;3.17;1.38;;;;;;;10.45;47.57;100894.66;4952313;29;20051;-72
2022/11/06 09:38:03;;;;;;;3.85;1.90;;;;;;;10.49;47.11;100891.53;4946165;29;20047;-72
2022/11/06 09:40:34;;;;;;;3.35;1.70;;;;;;;10.53;47.50;100892.13;4943182;29;20440;-72
2022/11/06 09:43:13;;;;;;;4.65;1.85;;;;;;;10.55;47.01;100891.03;4946638;29;20057;-72
2022/11/06 09:45:42;;;;;;;3.25;1.60;;;;;;;10.57;47.05;100880.81;4962501;28;20061;-71
2022/11/06 09:48:19;;;;;;;3.05;1.50;;;;;;;10.64;46.83;100885.78;4940543;28;20103;-73
2022/11/06 09:50:51;;;;;;;5.22;1.73;;;;;;;10.64;47.11;100877.56;4955863;28;20054;-71
2022/11/06 09:53:28;;;;;;;4.45;1.80;;;;;;;10.67;46.82;100869.94;4938992;28;20413;-72
2022/11/06 09:56:00;;;;;;;2.80;1.83;;;;;;;10.67;46.80;100875.41;4940019;29;20073;-72
2022/11/06 09:58:33;;;;;;;3.07;1.50;;;;;;;10.66;46.62;100870.94;4960094;28;20047;-71
2022/11/06 10:01:06;;;;;;;4.20;2.05;;;;;;;10.67;47.07;100871.78;4947025;29;20039;-71
2022/11/06 10:03:41;;;;;;;3.67;1.75;;;;;;;10.69;46.74;100873.41;4943219;28;20054;-71
2022/11/06 10:06:09;;;;;;;4.82;2.10;;;;;;;10.68;46.64;100868.06;4945570;28;20049;-72
2022/11/06 10:08:42;;;;;;;3.13;1.85;;;;;;;10.71;47.10;100856.84;4950990;29;20508;-71
2022/11/06 10:11:20;;;;;;;;;;;;;;;10.42;47.52;100854.75;4952363;28;20123;-72
2022/11/06 10:14:00;;;;;;;2.53;1.40;;;;;;;10.70;47.05;100866.06;4944540;29;20391;-72
2022/11/06 10:16:40;;;;;;;4.90;2.00;;;;;;;10.75;46.76;100858.31;4947417;28;20043;-72
2022/11/06 10:19:13;;;;;;;2.75;1.42;;;;;;;10.76;46.72;100849.97;4944704;29;20051;-72
2022/11/06 10:21:48;;;;;;;4.22;1.50;;;;;;;10.80;47.06;100836.88;4940675;28;20075;-72
2022/11/06 10:24:22;;;;;;;5.25;1.83;;;;;;;10.84;46.61;100841.06;4940550;29;20043;-72
2022/11/06 10:26:54;;;;;;;3.47;1.70;;;;;;;10.86;46.73;100833.59;4950551;28;20066;-72
2022/11/06 10:29:49;;;;;;;4.30;1.85;;;;;;;10.90;46.19;100835.03;4952258;29;20459;-71
2022/11/06 10:33:07;;;;;;;3.47;1.67;;;;;;;10.87;46.63;100836.19;4946651;28;20083;-72
2022/11/06 10:35:38;;;;;;;4.13;1.52;;;;;;;10.94;46.50;100839.25;4899144;29;20088;-72
2022/11/06 10:38:10;;;;;;;4.25;1.60;;;;;;;10.99;46.47;100835.06;4885877;29;20507;-73
2022/11/06 10:40:44;;;;;;;3.22;1.45;;;;;;;11.02;45.91;100823.00;4926627;29;20055;-71
2022/11/06 10:43:24;;;;;;;3.72;1.73;;;;;;;11.05;46.04;100820.00;4939900;29;20057;-72
2022/11/06 10:45:59;;;;;;;3.50;1.98;;;;;;;11.08;46.02;100813.34;4946490;28;20378;-71
2022/11/06 10:48:31;;;;;;;4.43;1.80;;;;;;;11.09;46.17;100806.88;4944646;28;20039;-71
2022/11/06 10:51:31;;;;;;;2.92;1.50;;;;;;;11.11;45.60;100807.59;4940828;28;20404;-75
2022/11/06 10:54:11;;;;;;;3.30;1.77;;;;;;;11.12;45.51;100793.78;4945807;28;20094;-72
2022/11/06 10:56:55;;;;;;;3.83;1.60;;;;;;;11.13;45.25;100784.56;4944790;29;20055;-72
2022/11/06 10:59:24;;;;;;;3.78;1.58;;;;;;;11.12;46.11;100787.44;4938888;29;20453;-71
2022/11/06 11:01:52;;;;;;;3.67;1.88;;;;;;;11.13;46.16;100791.91;4945179;29;20411;-70
2022/11/06 11:04:20;;;;;;;4.20;1.75;;;;;;;11.14;45.99;100777.19;4946559;29;20336;-71
2022/11/06 11:06:48;;;;;;;3.03;1.60;;;;;;;11.15;45.62;100778.91;4944008;28;20051;-73
2022/11/06 11:09:31;;;;;;;3.58;1.80;;;;;;;11.17;45.17;100779.66;4943746;29;20051;-72
2022/11/06 11:12:00;;;;;;;3.15;1.75;;;;;;;11.15;45.61;100768.81;4948577;28;20055;-74
2022/11/06 11:14:30;;;;;;;3.97;1.63;;;;;;;11.17;45.81;100765.94;4948843;29;20043;-74
2022/11/06 11:17:00;;;;;;;3.03;1.45;;;;;;;11.18;45.56;100752.13;4956569;28;20134;-74
2022/11/06 11:19:35;;;;;;;4.28;1.60;;;;;;;11.20;45.07;100749.25;4939927;29;20047;-73
2022/11/06 11:22:05;;;;;;;3.42;1.65;;;;;;;11.18;45.16;100752.13;4947113;28;20078;-73
2022/11/06 11:24:33;;;;;;;2.70;1.50;;;;;;;11.18;45.67;100759.47;4944916;29;20817;-73
2022/11/06 11:27:05;;;;;;;2.83;1.55;;;;;;;11.18;45.47;100743.91;4952064;28;20055;-73
2022/11/06 11:29:41;;;;;;;2.50;1.50;;;;;;;11.17;45.54;100741.28;4957800;28;20118;-75
2022/11/06 11:32:14;;;;;;;4.13;1.95;;;;;;;11.17;44.84;100736.69;4937986;28;20051;-73
2022/11/06 11:34:46;;;;;;;3.03;1.63;;;;;;;11.16;45.42;100725.88;4958255;28;20044;-72
2022/11/06 11:37:24;;;;;;;4.00;1.70;;;;;;;11.15;45.31;100722.25;4940045;29;20077;-74
2022/11/06 11:39:52;;;;;;;5.28;1.65;;;;;;;11.12;45.73;100711.59;4945666;29;20050;-72
2022/11/06 11:42:27;;;;;;;4.20;1.65;;;;;;;11.16;44.98;100717.66;4948139;28;20058;-73
2022/11/06 11:47:50;;;;;;;3.70;1.70;;;;;;;11.11;45.24;100711.75;5383836;23;19968;-81
2022/11/06 11:50:27;;;;;;;4.78;1.75;;;;;;;11.14;45.03;100695.03;4927209;29;20142;-81
2022/11/06 11:52:59;;;;;;;3.83;1.95;;;;;;;11.14;45.38;100684.06;4937377;29;20069;-81
2022/11/06 11:55:37;;;;;;;3.50;1.90;;;;;;;11.16;44.87;100679.28;4883731;29;20043;-80
2022/11/06 11:58:19;;;;;;;3.70;1.52;;;;;;;11.17;44.83;100673.69;4923725;29;20052;-83
2022/11/06 12:00:55;;;;;;;4.63;1.90;;;;;;;11.18;44.90;100669.06;4923748;23;20131;-79
2022/11/06 12:03:28;;;;;;;4.35;1.85;;;;;;;11.17;44.80;100650.91;4908273;29;20036;-80
2022/11/06 12:06:07;;;;;;;;;;;;;;;10.92;45.36;100638.63;4911950;29;20052;-80
2022/11/06 12:08:35;;;;;;;3.50;2.05;;;;;;;11.16;45.71;100644.56;4926551;29;20379;-80
2022/11/06 12:11:04;;;;;;;3.83;1.80;;;;;;;11.21;45.46;100628.56;4913060;29;20475;-80